Time;durP1;ratioP1;P1;durP2;ratioP2;P2;SDS_P1;SDS_P2;PMS_P1;PMS_P2;Temp;Humidity;BMP_temperature;BMP_pressure;BME280_temperature;BME280_humidity;BME280_pressure;Samples;Min_cycle;Max_cycle;Signal;HPM_P1;HPM_P2
2021/12/28 06:08:54;;;;;;;28.42;15.00;;;;;;;4.58;69.61;100042.78;5609930;31;77629;-58
2021/12/28 06:11:57;;;;;;;31.37;16.23;;;;;;;4.58;69.61;100042.78;5603762;31;33394;-58
2021/12/28 06:15:01;;;;;;;27.85;14.40;;;;;;;4.17;79.11;100042.28;5597974;31;34260;-58
2021/12/28 06:18:03;;;;;;;31.48;15.88;;;;;;;4.15;72.22;100046.25;5584418;32;33623;-58
2021/12/28 06:21:06;;;;;;;31.70;15.75;;;;;;;4.04;80.30;100053.25;5584537;31;33791;-58
2021/12/28 06:24:08;;;;;;;29.40;15.02;;;;;;;3.97;71.51;100056.09;5584787;31;33521;-58
2021/12/28 06:27:10;;;;;;;30.67;16.17;;;;;;;3.99;71.90;100063.78;5584817;32;33532;-58
2021/12/28 06:30:13;;;;;;;34.17;15.77;;;;;;;3.93;73.93;100052.31;5587657;31;33840;-58
2021/12/28 06:33:15;;;;;;;32.63;17.20;;;;;;;4.17;76.27;100057.37;5604633;31;34262;-58
2021/12/28 06:36:18;;;;;;;32.75;16.42;;;;;;;4.24;75.97;100055.38;5604752;31;34184;-58
2021/12/28 06:39:20;;;;;;;26.25;15.88;;;;;;;4.14;74.65;100057.87;5604711;31;33575;-58
2021/12/28 06:42:23;;;;;;;29.12;14.23;;;;;;;4.77;79.19;100059.19;5604310;31;33603;-58
2021/12/28 06:45:26;;;;;;;26.45;14.68;;;;;;;5.07;77.42;100053.38;5604998;31;33699;-58
2021/12/28 06:48:28;;;;;;;30.17;15.27;;;;;;;4.90;72.45;100056.12;5604964;31;33534;-58
2021/12/28 06:51:31;;;;;;;31.48;16.27;;;;;;;4.99;81.10;100061.78;5605110;31;33944;-58
2021/12/28 06:54:37;;;;;;;26.10;14.02;;;;;;;4.60;73.21;100056.63;5604905;31;33620;-58
2021/12/28 06:57:39;;;;;;;28.02;15.30;;;;;;;4.99;81.78;100048.50;5604935;31;33688;-58
2021/12/28 07:00:42;;;;;;;27.27;15.10;;;;;;;4.90;78.73;100060.63;5605204;31;34255;-58
2021/12/28 07:03:44;;;;;;;32.28;16.15;;;;;;;4.55;69.19;100061.84;5605268;31;34409;-58
2021/12/28 07:06:46;;;;;;;27.80;14.55;;;;;;;4.31;69.18;100069.25;5605429;31;34014;-58
2021/12/28 07:09:48;;;;;;;24.95;13.95;;;;;;;4.15;70.00;100067.47;5604740;31;34444;-58
2021/12/28 07:12:51;;;;;;;29.40;16.05;;;;;;;4.29;79.07;100068.69;5605119;31;33706;-58
2021/12/28 07:15:54;;;;;;;23.80;13.45;;;;;;;4.33;75.32;100074.31;5604815;31;33733;-58
2021/12/28 07:18:56;;;;;;;25.45;13.25;;;;;;;4.67;82.07;100077.66;5596809;31;33526;-58
2021/12/28 07:21:59;;;;;;;25.08;13.75;;;;;;;5.01;82.60;100077.50;5591603;31;34229;-58
2021/12/28 07:25:02;;;;;;;21.52;12.20;;;;;;;4.82;78.04;100087.66;5591505;31;33719;-58
2021/12/28 07:28:04;;;;;;;25.25;13.43;;;;;;;4.78;86.96;100097.16;5591370;31;34381;-59
2021/12/28 07:31:07;;;;;;;23.75;13.95;;;;;;;4.40;73.12;100097.00;5591351;31;34285;-58
2021/12/28 07:34:09;;;;;;;24.12;13.70;;;;;;;4.44;75.58;100084.81;5590918;31;33666;-58
2021/12/28 07:37:12;;;;;;;26.08;14.30;;;;;;;4.67;72.42;100094.41;5591347;31;33279;-58
2021/12/28 07:40:14;;;;;;;23.42;13.75;;;;;;;4.73;78.80;100087.28;5589636;31;33719;-58
2021/12/28 07:43:16;;;;;;;22.23;12.45;;;;;;;5.06;83.32;100091.59;5591077;31;33625;-58
2021/12/28 07:46:19;;;;;;;21.75;12.37;;;;;;;5.08;71.22;100089.50;5591058;31;33686;-58
2021/12/28 07:49:21;;;;;;;23.27;13.25;;;;;;;4.53;71.99;100100.31;5591765;31;33730;-58
2021/12/28 07:52:24;;;;;;;26.00;14.35;;;;;;;4.46;70.93;100103.94;5592039;31;34425;-58
2021/12/28 07:55:26;;;;;;;24.95;13.60;;;;;;;4.22;72.86;100092.75;5591930;31;34259;-58
2021/12/28 07:58:28;;;;;;;23.38;13.57;;;;;;;4.13;78.41;100096.06;5591443;31;33338;-58
2021/12/28 08:01:32;;;;;;;25.98;14.13;;;;;;;4.31;73.38;100092.34;5590278;31;33639;-58
2021/12/28 08:04:35;;;;;;;24.65;13.57;;;;;;;4.20;75.78;100092.19;5590267;31;34279;-58
2021/12/28 08:07:41;;;;;;;23.23;13.50;;;;;;;4.20;79.05;100104.66;5591380;31;33536;-58
2021/12/28 08:10:45;;;;;;;28.12;14.98;;;;;;;4.36;81.37;100103.03;5591765;31;34345;-58
2021/12/28 08:13:47;;;;;;;25.85;14.27;;;;;;;4.65;76.06;100095.69;5590881;31;33781;-58
2021/12/28 08:16:49;;;;;;;25.37;14.35;;;;;;;4.97;80.72;100093.12;5590771;31;33948;-58
2021/12/28 08:19:51;;;;;;;25.98;14.68;;;;;;;5.22;78.06;100089.09;5590196;31;33828;-58
2021/12/28 08:22:56;;;;;;;25.37;14.20;;;;;;;4.87;70.75;100093.03;5591282;31;34052;-58
2021/12/28 08:25:58;;;;;;;25.23;14.77;;;;;;;4.37;76.35;100088.69;5591066;31;34412;-58
2021/12/28 08:29:00;;;;;;;24.10;13.80;;;;;;;4.34;73.21;100089.19;5591031;31;33667;-58
2021/12/28 08:32:04;;;;;;;26.40;14.70;;;;;;;4.60;77.61;100085.81;5590129;31;34275;-58
2021/12/28 08:35:08;;;;;;;24.20;13.98;;;;;;;4.35;78.21;100085.50;5591030;31;34322;-58
2021/12/28 08:38:11;;;;;;;24.58;14.82;;;;;;;4.32;79.11;100080.69;5570316;32;33903;-58
2021/12/28 08:41:16;;;;;;;24.45;14.75;;;;;;;4.38;84.75;100088.47;5571358;32;34403;-58
2021/12/28 08:44:21;;;;;;;22.65;13.05;;;;;;;4.83;86.50;100086.59;5587221;31;33833;-58
2021/12/28 08:47:26;;;;;;;21.98;12.27;;;;;;;4.88;78.49;100090.09;5590263;31;33837;-58
2021/12/28 08:50:29;;;;;;;20.62;11.65;;;;;;;4.90;77.46;100093.31;5590339;31;34310;-58
2021/12/28 08:53:31;;;;;;;21.23;12.07;;;;;;;4.63;71.33;100087.94;5591029;31;33762;-58
2021/12/28 08:56:33;;;;;;;19.62;12.00;;;;;;;4.59;80.11;100094.81;5590548;31;33867;-58
2021/12/28 08:59:36;;;;;;;20.25;11.98;;;;;;;4.58;74.72;100101.19;5588834;31;33649;-58
2021/12/28 09:02:38;;;;;;;20.42;12.73;;;;;;;4.36;72.39;100097.72;5590115;31;33658;-58
